createdAt,value
2022-12-23T00:02:24.084Z,5.26
2022-12-23T00:05:26.590Z,5.18
2022-12-23T00:08:28.807Z,5.16
2022-12-23T00:11:31.220Z,5.14
2022-12-23T00:14:51.683Z,5.15
2022-12-23T00:17:54.140Z,5.10
2022-12-23T00:21:08.485Z,5.18
2022-12-23T00:24:12.150Z,5.21
2022-12-23T00:27:14.303Z,5.12
2022-12-23T00:30:17.012Z,5.13
2022-12-23T00:33:24.636Z,5.21
2022-12-23T00:36:29.890Z,5.32
2022-12-23T00:39:54.785Z,5.28
2022-12-23T00:42:58.696Z,5.30
2022-12-23T00:46:00.887Z,5.38
2022-12-23T00:49:22.297Z,5.45
2022-12-23T00:52:24.464Z,5.43
2022-12-23T00:55:27.076Z,5.63
2022-12-23T00:58:29.389Z,5.32
2022-12-23T01:01:50.658Z,5.51
2022-12-23T01:05:11.429Z,5.30
2022-12-23T01:08:13.874Z,5.23
2022-12-23T01:11:16.099Z,5.33
2022-12-23T01:14:18.663Z,5.25
2022-12-23T01:17:20.868Z,5.24
2022-12-23T01:20:23.753Z,5.02
2022-12-23T01:23:25.880Z,5.15
2022-12-23T01:26:28.366Z,5.10
2022-12-23T01:29:30.740Z,5.23
2022-12-23T01:32:33.209Z,5.44
2022-12-23T01:35:35.381Z,5.43
2022-12-23T01:38:37.803Z,5.53
2022-12-23T01:41:58.411Z,5.50
2022-12-23T01:45:02.554Z,5.38
2022-12-23T01:48:11.454Z,5.25
2022-12-23T01:51:34.064Z,5.33
2022-12-23T01:54:37.322Z,5.38
2022-12-23T01:57:42.278Z,5.21
2022-12-23T02:01:03.478Z,5.15
2022-12-23T02:04:10.878Z,5.09
2022-12-23T02:07:32.227Z,5.09
2022-12-23T02:11:06.999Z,4.96
2022-12-23T02:14:35.615Z,5.05
2022-12-23T02:17:59.954Z,4.97
2022-12-23T02:21:23.866Z,4.76
2022-12-23T02:24:48.130Z,4.68
2022-12-23T02:28:10.639Z,4.56
2022-12-23T02:31:39.136Z,4.70
2022-12-23T02:35:11.208Z,4.54
2022-12-23T02:38:29.572Z,4.44
2022-12-23T02:41:56.450Z,4.61
2022-12-23T02:45:39.917Z,4.42
2022-12-23T02:49:11.306Z,4.41
2022-12-23T02:52:17.094Z,4.42
2022-12-23T02:55:24.499Z,4.60
2022-12-23T02:58:34.026Z,4.61
2022-12-23T03:01:38.775Z,4.60
2022-12-23T03:04:42.306Z,4.61
2022-12-23T03:07:44.623Z,4.58
2022-12-23T03:11:04.873Z,4.68
2022-12-23T03:14:21.024Z,4.70
2022-12-23T03:17:42.984Z,4.90
2022-12-23T03:20:52.295Z,4.81
2022-12-23T03:24:08.567Z,4.70
2022-12-23T03:27:22.211Z,4.84
2022-12-23T03:30:25.356Z,4.70
2022-12-23T03:33:51.856Z,4.65
2022-12-23T03:36:58.014Z,4.62
2022-12-23T03:40:19.359Z,4.63
2022-12-23T03:43:34.463Z,4.70
2022-12-23T03:46:46.161Z,4.68
2022-12-23T03:50:01.801Z,4.58
2022-12-23T03:53:22.736Z,4.59
2022-12-23T03:56:31.772Z,4.61
2022-12-23T03:59:40.678Z,4.51
2022-12-23T04:02:59.534Z,4.43
2022-12-23T04:06:08.061Z,4.72
2022-12-23T04:09:14.410Z,4.63
2022-12-23T04:12:25.534Z,4.66
2022-12-23T04:15:28.351Z,4.71
2022-12-23T04:18:30.792Z,4.63
2022-12-23T04:21:32.993Z,4.50
2022-12-23T04:24:35.414Z,4.35
2022-12-23T04:27:37.791Z,4.49
2022-12-23T04:30:40.209Z,4.58
2022-12-23T04:33:42.375Z,4.42
2022-12-23T04:36:44.791Z,4.57
2022-12-23T04:39:46.938Z,4.46
2022-12-23T04:42:49.441Z,4.38
2022-12-23T04:45:51.940Z,4.47
2022-12-23T04:48:54.392Z,4.39
2022-12-23T04:51:56.593Z,4.17
2022-12-23T04:54:59.046Z,4.24
2022-12-23T04:58:01.170Z,4.31
2022-12-23T05:01:12.854Z,4.30
2022-12-23T05:04:15.137Z,4.12
2022-12-23T05:07:17.713Z,4.28
2022-12-23T05:10:19.953Z,4.42
2022-12-23T05:13:22.712Z,4.35
2022-12-23T05:16:24.961Z,4.36
2022-12-23T05:19:27.463Z,4.32
2022-12-23T05:22:29.601Z,4.15
2022-12-23T05:25:36.617Z,4.02
2022-12-23T05:28:38.940Z,3.86
2022-12-23T05:31:41.390Z,3.97
2022-12-23T05:34:43.550Z,4.05
2022-12-23T05:37:45.987Z,3.87
2022-12-23T05:40:48.767Z,3.81
2022-12-23T05:43:54.119Z,3.85
2022-12-23T05:46:56.381Z,3.88
2022-12-23T05:49:58.892Z,3.57
2022-12-23T05:53:01.157Z,3.40
2022-12-23T05:56:05.479Z,3.36
2022-12-23T05:59:07.675Z,3.73
2022-12-23T06:02:10.341Z,3.67
2022-12-23T06:05:13.626Z,3.78
2022-12-23T06:08:15.812Z,3.81
2022-12-23T06:11:18.250Z,3.85
2022-12-23T06:14:25.175Z,3.90
2022-12-23T06:17:31.091Z,4.01
2022-12-23T06:20:33.344Z,3.71
2022-12-23T06:23:35.903Z,3.79
2022-12-23T06:26:38.083Z,3.82
2022-12-23T06:29:41.033Z,3.75
2022-12-23T06:32:43.270Z,3.78
2022-12-23T06:35:45.881Z,3.76
2022-12-23T06:38:48.017Z,3.68
2022-12-23T06:41:50.597Z,3.49
2022-12-23T06:44:52.777Z,3.53
2022-12-23T06:47:55.267Z,3.51
2022-12-23T06:50:57.519Z,3.68
2022-12-23T06:54:00.438Z,3.47
2022-12-23T06:57:02.804Z,3.37
2022-12-23T07:00:09.146Z,3.51
2022-12-23T07:03:11.349Z,3.41
2022-12-23T07:06:14.042Z,3.07
2022-12-23T07:09:16.293Z,3.47
2022-12-23T07:12:19.374Z,3.54
2022-12-23T07:15:21.524Z,3.43
2022-12-23T07:18:24.809Z,3.29
2022-12-23T07:21:29.824Z,3.39
2022-12-23T07:24:32.716Z,3.38
2022-12-23T07:27:35.472Z,3.72
2022-12-23T07:30:37.962Z,3.71
2022-12-23T07:33:40.204Z,3.85
2022-12-23T07:36:42.612Z,3.88
2022-12-23T07:39:44.774Z,3.76
2022-12-23T07:42:53.779Z,3.78
2022-12-23T07:46:00.346Z,3.84
2022-12-23T07:49:03.013Z,3.79
2022-12-23T07:52:05.263Z,3.84
2022-12-23T07:55:08.128Z,3.92
2022-12-23T07:58:10.306Z,3.97
2022-12-23T08:01:12.796Z,3.91
2022-12-23T08:04:15.281Z,3.95
2022-12-23T08:07:17.467Z,3.92
2022-12-23T08:10:19.933Z,3.97
2022-12-23T08:13:22.095Z,4.02
2022-12-23T08:16:24.526Z,4.39
2022-12-23T08:19:26.706Z,4.56
2022-12-23T08:22:31.883Z,4.53
2022-12-23T08:25:34.008Z,4.47
2022-12-23T08:28:38.169Z,4.38
2022-12-23T08:31:40.358Z,4.24
2022-12-23T08:34:43.037Z,4.75
2022-12-23T08:37:45.296Z,4.53
2022-12-23T08:40:47.829Z,4.42
2022-12-23T08:43:51.301Z,4.42
2022-12-23T08:46:55.123Z,4.14
2022-12-23T08:49:57.339Z,4.40
2022-12-23T08:52:59.759Z,4.52
2022-12-23T08:56:08.178Z,4.54
2022-12-23T08:59:19.315Z,4.65
2022-12-23T09:02:22.207Z,4.38
2022-12-23T09:05:24.914Z,3.94
2022-12-23T09:08:27.110Z,4.14
2022-12-23T09:11:30.182Z,4.47
2022-12-23T09:14:32.341Z,4.47
2022-12-23T09:17:34.807Z,4.32
2022-12-23T09:20:37.976Z,4.14
2022-12-23T09:23:40.810Z,4.34
2022-12-23T09:26:43.007Z,4.18
2022-12-23T09:29:45.384Z,4.08
2022-12-23T09:32:47.557Z,4.10
2022-12-23T09:35:49.960Z,4.09
2022-12-23T09:38:57.143Z,4.44
2022-12-23T09:42:07.948Z,4.70
2022-12-23T09:45:40.308Z,4.30
2022-12-23T09:49:03.082Z,4.39
2022-12-23T09:52:12.100Z,4.41
2022-12-23T09:55:15.779Z,4.46
2022-12-23T09:58:23.505Z,4.29
2022-12-23T10:01:51.615Z,4.42
2022-12-23T10:05:05.150Z,4.60
2022-12-23T10:08:22.644Z,4.50
2022-12-23T10:11:32.056Z,4.38
2022-12-23T10:14:36.156Z,4.57
2022-12-23T10:17:41.968Z,4.43
2022-12-23T10:20:53.263Z,4.36
2022-12-23T10:23:55.881Z,4.28
2022-12-23T10:27:04.153Z,4.03
2022-12-23T10:30:51.353Z,4.16
2022-12-23T10:34:24.931Z,4.42
2022-12-23T10:37:58.327Z,4.35
2022-12-23T10:41:16.595Z,4.73
2022-12-23T10:44:43.436Z,4.55
2022-12-23T10:48:00.044Z,4.41
2022-12-23T10:51:09.868Z,4.49
2022-12-23T10:54:34.785Z,4.72
2022-12-23T10:57:37.228Z,4.42
2022-12-23T11:00:42.978Z,4.38
2022-12-23T11:04:02.551Z,4.18
2022-12-23T11:07:42.053Z,4.21
2022-12-23T11:10:35.086Z,4.35
2022-12-23T11:13:40.535Z,4.46
2022-12-23T11:16:46.433Z,4.76
2022-12-23T11:20:07.827Z,4.39
2022-12-23T11:23:27.316Z,4.56
2022-12-23T11:26:29.524Z,4.65
2022-12-23T11:29:35.456Z,4.86
2022-12-23T11:32:37.856Z,4.78
2022-12-23T11:35:40.331Z,4.86
2022-12-23T11:41:26.499Z,5.56
2022-12-23T11:44:37.891Z,5.56
2022-12-23T11:47:41.539Z,5.04
2022-12-23T11:50:44.216Z,5.09
2022-12-23T11:53:46.322Z,4.93
2022-12-23T11:56:51.995Z,4.87
2022-12-23T12:00:01.435Z,4.94
2022-12-23T12:03:06.411Z,5.01
2022-12-23T12:06:14.949Z,4.97
2022-12-23T12:09:17.924Z,5.08
2022-12-23T12:12:21.947Z,5.34
2022-12-23T12:15:39.317Z,5.36
2022-12-23T12:18:43.827Z,5.50
2022-12-23T12:21:48.452Z,5.43
2022-12-23T12:24:53.564Z,5.29
2022-12-23T12:28:06.253Z,5.32
2022-12-23T12:31:11.832Z,5.16
2022-12-23T12:34:35.699Z,4.97
2022-12-23T12:37:48.145Z,4.87
2022-12-23T12:41:16.573Z,5.19
2022-12-23T12:44:43.694Z,5.24
2022-12-23T12:47:55.196Z,5.22
2022-12-23T12:51:26.470Z,5.19
2022-12-23T12:55:01.798Z,5.33
2022-12-23T12:58:04.250Z,5.51
2022-12-23T13:01:33.024Z,5.23
2022-12-23T13:05:09.363Z,5.14
2022-12-23T13:08:42.888Z,5.19
2022-12-23T13:12:01.771Z,5.36
2022-12-23T13:15:23.493Z,5.48
2022-12-23T13:18:39.106Z,5.24
2022-12-23T13:21:55.075Z,5.13
2022-12-23T13:25:08.889Z,5.03
2022-12-23T13:28:20.009Z,5.37
2022-12-23T13:31:46.852Z,5.49
2022-12-23T13:35:09.928Z,5.43
2022-12-23T13:38:30.699Z,5.52
2022-12-23T13:41:36.936Z,5.44
2022-12-23T13:44:39.753Z,5.33
2022-12-23T13:48:04.315Z,5.32
2022-12-23T13:51:30.593Z,5.15
2022-12-23T13:55:07.443Z,5.57
2022-12-23T13:58:21.848Z,5.34
2022-12-23T14:01:42.371Z,5.41
2022-12-23T14:04:59.447Z,5.19
2022-12-23T14:08:07.017Z,5.26
2022-12-23T14:11:21.813Z,5.37
2022-12-23T14:14:53.469Z,5.35
2022-12-23T14:18:17.760Z,5.25
2022-12-23T14:21:25.599Z,5.33
2022-12-23T14:24:37.153Z,5.33
2022-12-23T14:27:58.036Z,5.25
2022-12-23T14:31:03.760Z,5.47
2022-12-23T14:34:17.845Z,5.57
2022-12-23T14:37:20.248Z,5.42
2022-12-23T14:40:37.841Z,5.45
2022-12-23T14:43:46.372Z,5.65
2022-12-23T14:46:48.558Z,5.53
2022-12-23T14:49:51.271Z,5.26
2022-12-23T14:53:03.652Z,5.34
2022-12-23T14:56:15.051Z,5.56
2022-12-23T14:59:29.993Z,5.48
2022-12-23T15:02:41.391Z,5.41
2022-12-23T15:05:43.964Z,5.26
2022-12-23T15:08:50.608Z,5.27
2022-12-23T15:11:55.207Z,5.21
2022-12-23T15:15:00.149Z,5.27
2022-12-23T15:18:12.349Z,5.26
2022-12-23T15:21:14.747Z,5.43
2022-12-23T15:24:20.147Z,5.52
2022-12-23T15:27:27.908Z,5.49
2022-12-23T15:30:36.504Z,5.41
2022-12-23T15:37:01.847Z,5.34
2022-12-23T15:40:12.737Z,5.41
2022-12-23T15:43:23.819Z,5.42
2022-12-23T15:46:30.075Z,5.23
2022-12-23T15:49:32.682Z,5.09
2022-12-23T15:52:35.124Z,5.14
2022-12-23T15:55:40.273Z,5.37
2022-12-23T15:58:42.971Z,5.47
2022-12-23T16:01:45.315Z,5.26
2022-12-23T16:04:56.350Z,5.18
2022-12-23T16:08:19.333Z,5.33
2022-12-23T16:11:38.007Z,5.46
2022-12-23T16:14:41.356Z,5.48
2022-12-23T16:17:44.010Z,5.40
2022-12-23T16:20:53.653Z,5.33
2022-12-23T16:23:56.983Z,5.27
2022-12-23T16:26:59.185Z,5.22
2022-12-23T16:30:24.121Z,5.38
2022-12-23T16:33:41.461Z,5.64
2022-12-23T16:36:43.976Z,5.42
2022-12-23T16:39:46.115Z,5.28
2022-12-23T16:42:48.578Z,5.46
2022-12-23T16:45:54.763Z,5.67
2022-12-23T16:48:59.710Z,5.58
2022-12-23T16:52:05.404Z,5.48
2022-12-23T16:55:19.279Z,5.40
2022-12-23T16:58:21.477Z,5.33
2022-12-23T17:01:27.870Z,5.40
2022-12-23T17:04:30.125Z,5.36
2022-12-23T17:07:32.541Z,5.34
2022-12-23T17:10:35.340Z,5.32
2022-12-23T17:13:38.300Z,5.29
2022-12-23T17:16:40.558Z,5.33
2022-12-23T17:19:43.085Z,5.49
2022-12-23T17:22:49.061Z,5.55
2022-12-23T17:25:52.170Z,5.49
2022-12-23T17:28:55.082Z,5.59
2022-12-23T17:31:57.705Z,5.41
2022-12-23T17:34:59.880Z,5.35
2022-12-23T17:38:02.349Z,5.58
2022-12-23T17:41:04.807Z,5.56
2022-12-23T17:44:07.689Z,5.55
2022-12-23T17:47:17.637Z,5.67
2022-12-23T17:50:20.415Z,5.40
2022-12-23T17:53:22.605Z,5.30
2022-12-23T17:56:27.361Z,5.24
2022-12-23T17:59:29.545Z,5.19
2022-12-23T18:02:35.127Z,5.23
2022-12-23T18:05:37.578Z,5.50
2022-12-23T18:08:40.208Z,5.38
2022-12-23T18:11:45.309Z,5.40
2022-12-23T18:14:47.584Z,5.57
2022-12-23T18:17:51.192Z,5.39
2022-12-23T18:20:55.815Z,5.39
2022-12-23T18:23:59.834Z,5.34
2022-12-23T18:27:02.037Z,5.55
2022-12-23T18:30:04.921Z,5.43
2022-12-23T18:33:10.425Z,5.33
2022-12-23T18:36:24.301Z,5.18
2022-12-23T18:39:26.469Z,5.25
2022-12-23T18:42:28.904Z,5.16
2022-12-23T18:45:34.973Z,5.17
2022-12-23T18:48:37.405Z,5.16
2022-12-23T18:51:39.558Z,5.03
2022-12-23T18:54:42.034Z,5.06
2022-12-23T18:57:44.232Z,5.38
2022-12-23T19:00:48.248Z,5.44
2022-12-23T19:03:50.382Z,5.36
2022-12-23T19:06:54.084Z,5.23
2022-12-23T19:09:56.243Z,5.19
2022-12-23T19:12:59.627Z,5.40
2022-12-23T19:16:01.910Z,5.27
2022-12-23T19:19:04.446Z,5.42
2022-12-23T19:22:06.567Z,5.33
2022-12-23T19:25:11.536Z,5.22
2022-12-23T19:28:13.661Z,5.12
2022-12-23T19:31:17.293Z,5.10
2022-12-23T19:34:19.491Z,5.24
2022-12-23T19:37:21.913Z,5.37
2022-12-23T19:40:24.156Z,5.39
2022-12-23T19:43:26.556Z,5.66
2022-12-23T19:46:28.790Z,5.55
2022-12-23T19:49:31.473Z,5.26
2022-12-23T19:52:33.715Z,5.03
2022-12-23T19:55:36.103Z,5.06
2022-12-23T19:58:41.356Z,5.26
2022-12-23T20:01:44.462Z,5.34
2022-12-23T20:04:47.095Z,5.15
2022-12-23T20:07:49.228Z,5.00
2022-12-23T20:10:51.640Z,4.93
2022-12-23T20:13:55.178Z,5.07
2022-12-23T20:16:57.665Z,4.99
2022-12-23T20:19:59.830Z,5.06
2022-12-23T20:23:02.224Z,4.83
2022-12-23T20:26:05.238Z,4.95
2022-12-23T20:29:08.983Z,4.87
2022-12-23T20:32:11.108Z,5.12
2022-12-23T20:35:13.598Z,5.18
2022-12-23T20:38:15.837Z,5.12
2022-12-23T20:41:21.303Z,5.07
2022-12-23T20:44:34.569Z,5.07
2022-12-23T20:47:38.897Z,5.14
2022-12-23T20:50:41.670Z,5.00
2022-12-23T20:53:44.407Z,5.11
2022-12-23T20:56:46.509Z,5.05
2022-12-23T20:59:49.120Z,4.98
2022-12-23T21:02:51.359Z,5.01
2022-12-23T21:05:56.763Z,5.17
2022-12-23T21:09:00.453Z,5.19
2022-12-23T21:12:03.664Z,5.35
2022-12-23T21:15:06.208Z,5.46
2022-12-23T21:18:08.595Z,5.46
2022-12-23T21:21:12.234Z,5.28
2022-12-23T21:24:15.291Z,5.15
2022-12-23T21:27:17.526Z,5.33
2022-12-23T21:30:20.024Z,5.51
2022-12-23T21:33:22.174Z,5.55
2022-12-23T21:36:27.135Z,5.49
2022-12-23T21:39:29.500Z,5.41
2022-12-23T21:42:31.964Z,5.44
2022-12-23T21:45:34.171Z,5.44
2022-12-23T21:48:37.834Z,5.19
2022-12-23T21:51:41.535Z,5.16
2022-12-23T21:54:44.450Z,5.36
2022-12-23T21:57:47.041Z,5.48
2022-12-23T22:00:49.544Z,5.34
2022-12-23T22:03:53.234Z,5.26
2022-12-23T22:06:55.399Z,5.35
2022-12-23T22:09:57.851Z,5.26
2022-12-23T22:12:59.955Z,5.08
2022-12-23T22:16:04.338Z,5.08
2022-12-23T22:19:08.690Z,5.01
2022-12-23T22:22:11.126Z,5.14
2022-12-23T22:25:13.223Z,5.04
2022-12-23T22:28:15.601Z,5.06
2022-12-23T22:31:38.398Z,5.15
2022-12-23T22:34:40.862Z,5.01
2022-12-23T22:37:42.969Z,4.91
2022-12-23T22:40:49.433Z,5.02
2022-12-23T22:43:51.673Z,5.01
2022-12-23T22:46:54.451Z,4.88
2022-12-23T22:49:56.830Z,4.83
2022-12-23T22:52:59.300Z,4.95
2022-12-23T22:56:03.628Z,4.90
2022-12-23T22:59:06.075Z,4.92
2022-12-23T23:02:08.276Z,5.17
2022-12-23T23:05:13.075Z,5.26
2022-12-23T23:08:15.582Z,4.93
2022-12-23T23:11:18.291Z,5.07
2022-12-23T23:14:20.685Z,5.01
2022-12-23T23:17:26.092Z,4.91
2022-12-23T23:20:28.319Z,4.82
2022-12-23T23:23:30.722Z,4.78
2022-12-23T23:26:32.962Z,4.81
2022-12-23T23:29:35.782Z,5.00
2022-12-23T23:32:37.904Z,4.69
2022-12-23T23:35:40.537Z,4.64
2022-12-23T23:38:42.728Z,4.66
2022-12-23T23:41:45.325Z,4.69
2022-12-23T23:44:47.439Z,4.74
2022-12-23T23:47:49.911Z,5.11
2022-12-23T23:50:52.029Z,5.48
2022-12-23T23:53:54.527Z,5.29
2022-12-23T23:56:56.654Z,5.47
2022-12-23T23:59:59.100Z,5.27
